Time;durP1;ratioP1;P1;durP2;ratioP2;P2;SDS_P1;SDS_P2;PMS_P1;PMS_P2;Temp;Humidity;BMP_temperature;BMP_pressure;BME280_temperature;BME280_humidity;BME280_pressure;Samples;Min_cycle;Max_cycle;Signal;HPM_P1;HPM_P2
2023/06/18 00:01:20;;;;;;;18.40;17.00;;;;;;;;;;108037;273;40956;-43
2023/06/18 00:03:56;;;;;;;18.30;16.80;;;;;;;;;;107911;273;195958;-43
2023/06/18 00:06:31;;;;;;;17.70;16.30;;;;;;;;;;107980;273;42189;-42
2023/06/18 00:09:05;;;;;;;18.30;16.80;;;;;;;;;;107950;279;44738;-43
2023/06/18 00:11:40;;;;;;;18.40;16.90;;;;;;;;;;108036;273;39459;-42
2023/06/18 00:14:14;;;;;;;18.90;17.40;;;;;;;;;;108033;273;43116;-44
2023/06/18 00:16:47;;;;;;;18.90;17.40;;;;;;;;;;108069;277;41884;-44
2023/06/18 00:19:20;;;;;;;17.90;16.40;;;;;;;;;;107984;277;46921;-42
2023/06/18 00:21:56;;;;;;;18.30;16.80;;;;;;;;;;108006;273;39441;-42
2023/06/18 00:24:30;;;;;;;17.80;16.30;;;;;;;;;;108042;277;42760;-43
2023/06/18 00:27:09;;;;;;;17.80;16.40;;;;;;;;;;107982;273;41992;-45
2023/06/18 00:29:48;;;;;;;17.80;16.40;;;;;;;;;;108122;277;44381;-44
2023/06/18 00:32:23;;;;;;;17.30;15.90;;;;;;;;;;108071;274;39822;-42
2023/06/18 00:35:00;;;;;;;17.60;16.10;;;;;;;;;;107999;277;42837;-43
2023/06/18 00:37:36;;;;;;;17.90;16.40;;;;;;;;;;107932;277;42175;-41
2023/06/18 00:40:12;;;;;;;18.00;16.60;;;;;;;;;;107970;273;46171;-43
2023/06/18 00:42:48;;;;;;;17.60;16.20;;;;;;;;;;107996;277;39470;-42
2023/06/18 00:45:24;;;;;;;17.40;16.00;;;;;;;;;;108050;277;42848;-43
2023/06/18 00:47:57;;;;;;;18.00;16.60;;;;;;;;;;107981;273;42197;-41
2023/06/18 00:50:37;;;;;;;17.70;16.30;;;;;;;;;;108036;277;38822;-40
2023/06/18 00:53:13;;;;;;;18.50;17.00;;;;;;;;;;108074;273;40740;-42
2023/06/18 00:55:46;;;;;;;18.10;16.70;;;;;;;;;;108094;277;44305;-43
2023/06/18 00:58:23;;;;;;;17.90;16.50;;;;;;;;;;107977;277;42157;-42
2023/06/18 01:00:57;;;;;;;17.90;16.50;;;;;;;;;;108012;273;38908;-42
2023/06/18 01:03:32;;;;;;;17.50;16.10;;;;;;;;;;108073;273;39804;-41
2023/06/18 01:06:11;;;;;;;18.20;16.70;;;;;;;;;;108048;277;42629;-41
2023/06/18 01:08:48;;;;;;;18.00;16.50;;;;;;;;;;107994;277;43339;-41
2023/06/18 01:11:22;;;;;;;18.30;16.80;;;;;;;;;;108135;272;38993;-41
2023/06/18 01:13:55;;;;;;;18.10;16.60;;;;;;;;;;108055;270;40962;-44
2023/06/18 01:16:30;;;;;;;17.30;16.00;;;;;;;;;;108021;273;42638;-40
2023/06/18 01:19:04;;;;;;;18.30;16.90;;;;;;;;;;108005;277;41969;-40
2023/06/18 01:21:39;;;;;;;17.80;16.40;;;;;;;;;;108062;273;38517;-44
2023/06/18 01:24:20;;;;;;;17.50;16.20;;;;;;;;;;108029;277;39732;-45
2023/06/18 01:26:56;;;;;;;17.70;16.30;;;;;;;;;;108076;270;42937;-41
2023/06/18 01:29:30;;;;;;;17.70;16.30;;;;;;;;;;107978;269;41971;-46
2023/06/18 01:32:04;;;;;;;17.80;16.40;;;;;;;;;;108042;270;40036;-44
2023/06/18 01:34:40;;;;;;;18.20;16.80;;;;;;;;;;108003;277;39710;-44
2023/06/18 01:37:31;;;;;;;18.00;16.60;;;;;;;;;;108058;277;42818;-42
2023/06/18 01:40:28;;;;;;;17.20;15.90;;;;;;;;;;107994;273;42530;-43
2023/06/18 01:43:11;;;;;;;17.90;16.50;;;;;;;;;;108039;273;38887;-45
2023/06/18 01:45:57;;;;;;;17.80;16.40;;;;;;;;;;107987;277;39665;-44
2023/06/18 01:48:37;;;;;;;18.00;16.60;;;;;;;;;;107991;277;42836;-42
2023/06/18 01:51:11;;;;;;;17.90;16.40;;;;;;;;;;107968;270;42487;-42
2023/06/18 01:53:45;;;;;;;18.30;16.80;;;;;;;;;;108037;277;39893;-42
2023/06/18 01:56:20;;;;;;;18.40;17.00;;;;;;;;;;108012;273;39426;-41
2023/06/18 01:58:54;;;;;;;17.70;16.40;;;;;;;;;;108026;277;43000;-41
2023/06/18 02:01:30;;;;;;;17.60;16.20;;;;;;;;;;107985;277;43329;-41
2023/06/18 02:04:03;;;;;;;17.60;16.20;;;;;;;;;;108069;273;38577;-50
2023/06/18 02:06:37;;;;;;;18.00;16.60;;;;;;;;;;108040;277;39533;-43
2023/06/18 02:09:11;;;;;;;18.20;16.70;;;;;;;;;;107964;270;42763;-44
2023/06/18 02:11:44;;;;;;;17.70;16.30;;;;;;;;;;108044;273;43330;-43
2023/06/18 02:14:17;;;;;;;17.70;16.20;;;;;;;;;;108032;277;40197;-42
2023/06/18 02:16:55;;;;;;;18.50;17.10;;;;;;;;;;108031;270;40769;-44
2023/06/18 02:19:29;;;;;;;18.30;16.90;;;;;;;;;;108045;270;42878;-42
2023/06/18 02:22:04;;;;;;;18.00;16.60;;;;;;;;;;107952;273;47503;-43
2023/06/18 02:24:38;;;;;;;18.70;17.30;;;;;;;;;;108016;277;39114;-42
2023/06/18 02:27:13;;;;;;;18.30;16.90;;;;;;;;;;107989;277;39474;-42
2023/06/18 02:29:47;;;;;;;17.30;15.90;;;;;;;;;;108052;277;43939;-42
2023/06/18 02:32:20;;;;;;;18.20;16.80;;;;;;;;;;107985;270;47775;-42
2023/06/18 02:34:54;;;;;;;18.50;17.00;;;;;;;;;;108041;277;38554;-43
2023/06/18 02:37:29;;;;;;;18.50;17.00;;;;;;;;;;108045;273;41223;-45
2023/06/18 02:40:06;;;;;;;18.40;17.00;;;;;;;;;;108059;273;42963;-43
2023/06/18 02:42:47;;;;;;;18.00;16.60;;;;;;;;;;108166;269;48050;-42
2023/06/18 02:45:22;;;;;;;18.40;16.90;;;;;;;;;;108084;277;38833;-42
2023/06/18 02:47:56;;;;;;;18.60;17.10;;;;;;;;;;108043;277;39881;-42
2023/06/18 02:50:29;;;;;;;17.80;16.40;;;;;;;;;;107998;270;42599;-43
2023/06/18 02:53:04;;;;;;;17.90;16.40;;;;;;;;;;108056;270;43453;-42
2023/06/18 02:55:37;;;;;;;18.80;17.30;;;;;;;;;;108033;270;38554;-41
2023/06/18 02:58:27;;;;;;;18.70;17.20;;;;;;;;;;108051;277;39687;-43
2023/06/18 03:01:05;;;;;;;18.10;16.70;;;;;;;;;;108000;279;42794;-41
2023/06/18 03:03:39;;;;;;;18.50;17.10;;;;;;;;;;108057;269;43286;-40
2023/06/18 03:06:13;;;;;;;18.30;16.90;;;;;;;;;;108029;277;38747;-44
2023/06/18 03:08:47;;;;;;;18.50;17.00;;;;;;;;;;107984;269;39671;-42
2023/06/18 03:11:20;;;;;;;18.10;16.70;;;;;;;;;;107986;270;42661;-42
2023/06/18 03:13:53;;;;;;;18.90;17.40;;;;;;;;;;108033;270;42148;-45
2023/06/18 03:16:27;;;;;;;18.80;17.30;;;;;;;;;;107974;273;40802;-44
2023/06/18 03:19:00;;;;;;;18.60;17.20;;;;;;;;;;107973;273;39496;-41
2023/06/18 03:21:35;;;;;;;17.80;16.40;;;;;;;;;;107974;277;42797;-45
2023/06/18 03:24:10;;;;;;;18.20;16.80;;;;;;;;;;107992;277;43315;-42
2023/06/18 03:26:45;;;;;;;18.80;17.40;;;;;;;;;;108011;277;38839;-44
2023/06/18 03:29:18;;;;;;;18.70;17.20;;;;;;;;;;108060;277;41100;-43
2023/06/18 03:31:53;;;;;;;18.10;16.70;;;;;;;;;;108030;277;42774;-43
2023/06/18 03:34:27;;;;;;;18.40;17.00;;;;;;;;;;108041;277;42284;-43
2023/06/18 03:37:02;;;;;;;18.70;17.20;;;;;;;;;;108102;270;38578;-43
2023/06/18 03:39:35;;;;;;;18.50;17.00;;;;;;;;;;107967;277;174953;-41
2023/06/18 03:42:10;;;;;;;18.60;17.20;;;;;;;;;;107986;269;42946;-45
2023/06/18 03:44:45;;;;;;;18.00;16.60;;;;;;;;;;108081;273;42225;-42
2023/06/18 03:47:18;;;;;;;18.30;16.90;;;;;;;;;;108031;273;38778;-49
2023/06/18 03:49:51;;;;;;;18.50;17.00;;;;;;;;;;108064;277;39767;-41
2023/06/18 03:52:27;;;;;;;18.70;17.20;;;;;;;;;;107999;277;42864;-44
2023/06/18 03:55:00;;;;;;;18.70;17.20;;;;;;;;;;108016;273;42120;-42
2023/06/18 03:57:34;;;;;;;18.90;17.40;;;;;;;;;;108025;269;39978;-43
2023/06/18 04:00:10;;;;;;;18.90;17.40;;;;;;;;;;108017;270;39765;-45
2023/06/18 04:02:44;;;;;;;18.80;17.30;;;;;;;;;;108033;273;42853;-46
2023/06/18 04:05:18;;;;;;;18.90;17.30;;;;;;;;;;108054;277;41954;-45
2023/06/18 04:07:55;;;;;;;19.30;17.80;;;;;;;;;;108031;277;38580;-44
2023/06/18 04:10:28;;;;;;;19.30;17.70;;;;;;;;;;108040;277;39657;-43
2023/06/18 04:13:02;;;;;;;19.10;17.60;;;;;;;;;;108025;274;42852;-42
2023/06/18 04:15:35;;;;;;;19.30;17.80;;;;;;;;;;108009;277;42189;-43
2023/06/18 04:18:10;;;;;;;18.90;17.50;;;;;;;;;;108051;273;38618;-41
2023/06/18 04:20:46;;;;;;;19.40;18.00;;;;;;;;;;107981;270;39748;-43
2023/06/18 04:23:20;;;;;;;18.80;17.30;;;;;;;;;;108005;273;42955;-42
2023/06/18 04:25:55;;;;;;;18.50;17.00;;;;;;;;;;108022;277;42104;-42
2023/06/18 04:28:28;;;;;;;18.90;17.40;;;;;;;;;;107985;277;41305;-43
2023/06/18 04:31:03;;;;;;;19.10;17.60;;;;;;;;;;108049;273;39617;-43
2023/06/18 04:33:37;;;;;;;18.80;17.30;;;;;;;;;;107992;277;43148;-42
2023/06/18 04:36:10;;;;;;;19.10;17.60;;;;;;;;;;107995;277;42202;-44
2023/06/18 04:38:43;;;;;;;18.30;16.90;;;;;;;;;;108047;273;38878;-42
2023/06/18 04:41:17;;;;;;;19.30;17.80;;;;;;;;;;108028;269;39770;-48
2023/06/18 04:43:50;;;;;;;19.00;17.50;;;;;;;;;;107989;270;43985;-42
2023/06/18 04:46:23;;;;;;;18.80;17.30;;;;;;;;;;107950;277;42486;-42
2023/06/18 04:48:59;;;;;;;18.10;16.70;;;;;;;;;;107624;277;533051;-41
2023/06/18 04:51:34;;;;;;;19.10;17.60;;;;;;;;;;108026;277;39759;-46
2023/06/18 04:54:08;;;;;;;18.20;16.80;;;;;;;;;;108001;270;42878;-45
2023/06/18 04:56:42;;;;;;;19.10;17.50;;;;;;;;;;108022;277;42040;-42
2023/06/18 04:59:19;;;;;;;18.60;17.00;;;;;;;;;;108061;277;38794;-42
2023/06/18 05:01:56;;;;;;;18.80;17.30;;;;;;;;;;108039;277;39698;-46
2023/06/18 05:04:30;;;;;;;18.70;17.20;;;;;;;;;;107985;270;42862;-42
2023/06/18 05:07:06;;;;;;;18.90;17.40;;;;;;;;;;108037;270;42182;-42
2023/06/18 05:09:40;;;;;;;18.60;17.10;;;;;;;;;;108064;277;38933;-45
2023/06/18 05:12:17;;;;;;;18.50;17.00;;;;;;;;;;108032;270;39474;-43
2023/06/18 05:14:50;;;;;;;18.80;17.30;;;;;;;;;;107988;270;42867;-46
2023/06/18 05:17:27;;;;;;;19.00;17.40;;;;;;;;;;108022;270;42100;-44
2023/06/18 05:20:01;;;;;;;18.20;16.70;;;;;;;;;;108008;277;38771;-43
2023/06/18 05:22:35;;;;;;;18.70;17.20;;;;;;;;;;108008;277;39784;-43
2023/06/18 05:25:12;;;;;;;19.10;17.50;;;;;;;;;;107951;273;42970;-44
2023/06/18 05:27:45;;;;;;;18.40;16.80;;;;;;;;;;107997;270;42237;-42
2023/06/18 05:30:19;;;;;;;19.10;17.50;;;;;;;;;;108013;270;38752;-44
2023/06/18 05:32:52;;;;;;;18.40;16.90;;;;;;;;;;108009;277;39702;-43
2023/06/18 05:35:26;;;;;;;19.00;17.50;;;;;;;;;;107924;269;42940;-42
2023/06/18 05:38:00;;;;;;;18.80;17.30;;;;;;;;;;107982;270;42164;-42
2023/06/18 05:40:34;;;;;;;18.80;17.30;;;;;;;;;;108016;277;38788;-44
2023/06/18 05:43:07;;;;;;;19.00;17.50;;;;;;;;;;107982;270;39892;-43
2023/06/18 05:45:41;;;;;;;18.60;17.10;;;;;;;;;;107937;270;42690;-41
2023/06/18 05:48:15;;;;;;;18.40;16.90;;;;;;;;;;107958;273;43112;-42
2023/06/18 05:50:49;;;;;;;18.70;17.20;;;;;;;;;;107965;270;38659;-41
2023/06/18 05:53:22;;;;;;;18.80;17.30;;;;;;;;;;107964;277;39578;-42
2023/06/18 05:55:56;;;;;;;18.30;16.80;;;;;;;;;;107954;277;42973;-43
2023/06/18 05:58:29;;;;;;;18.60;17.20;;;;;;;;;;108002;273;42301;-46
2023/06/18 06:01:02;;;;;;;18.50;17.00;;;;;;;;;;108055;277;38808;-43
2023/06/18 06:03:36;;;;;;;18.80;17.30;;;;;;;;;;107982;270;39463;-41
2023/06/18 06:06:09;;;;;;;19.00;17.50;;;;;;;;;;107996;277;45143;-43
2023/06/18 06:08:43;;;;;;;18.30;16.80;;;;;;;;;;108027;270;41966;-46
2023/06/18 06:11:19;;;;;;;17.90;16.50;;;;;;;;;;107953;277;38780;-42
2023/06/18 06:13:52;;;;;;;18.10;16.60;;;;;;;;;;108059;273;39741;-42
2023/06/18 06:16:26;;;;;;;18.60;16.90;;;;;;;;;;108001;277;43986;-43
2023/06/18 06:18:59;;;;;;;19.20;17.20;;;;;;;;;;108029;270;42207;-41
2023/06/18 06:21:36;;;;;;;18.60;16.80;;;;;;;;;;108040;272;39872;-42
2023/06/18 06:24:09;;;;;;;19.00;17.00;;;;;;;;;;108046;273;39695;-45
2023/06/18 06:26:45;;;;;;;18.50;16.70;;;;;;;;;;107917;273;42774;-44
2023/06/18 06:29:18;;;;;;;18.20;16.30;;;;;;;;;;107957;270;42373;-47
2023/06/18 06:31:54;;;;;;;18.30;16.50;;;;;;;;;;108031;273;38781;-44
2023/06/18 06:34:27;;;;;;;18.50;16.70;;;;;;;;;;108012;277;39702;-46
2023/06/18 06:37:05;;;;;;;17.80;16.10;;;;;;;;;;108107;275;43941;31
2023/06/18 06:39:39;;;;;;;18.40;16.70;;;;;;;;;;107903;276;42323;-52
2023/06/18 06:42:16;;;;;;;18.40;16.60;;;;;;;;;;108068;276;38783;-44
2023/06/18 06:44:49;;;;;;;18.60;16.80;;;;;;;;;;108047;268;39932;-46
2023/06/18 06:47:23;;;;;;;18.20;16.60;;;;;;;;;;108059;269;42872;-46
2023/06/18 06:49:58;;;;;;;18.40;16.70;;;;;;;;;;107895;272;175496;-44
2023/06/18 06:52:31;;;;;;;17.70;16.20;;;;;;;;;;107950;277;38797;-46
2023/06/18 06:55:05;;;;;;;18.50;16.80;;;;;;;;;;107981;273;40906;-45
2023/06/18 06:57:39;;;;;;;17.30;15.70;;;;;;;;;;107978;272;175147;-41
2023/06/18 07:00:14;;;;;;;18.10;16.50;;;;;;;;;;107986;268;43186;-44
2023/06/18 07:02:48;;;;;;;18.40;16.70;;;;;;;;;;107987;268;38772;-43
2023/06/18 07:05:21;;;;;;;17.70;16.20;;;;;;;;;;107916;272;40847;-43
2023/06/18 07:07:54;;;;;;;17.90;16.30;;;;;;;;;;107956;268;49465;-42
2023/06/18 07:10:28;;;;;;;18.40;16.80;;;;;;;;;;107925;274;42261;-42
2023/06/18 07:13:05;;;;;;;19.10;17.40;;;;;;;;;;107902;268;38823;-40
2023/06/18 07:15:38;;;;;;;19.40;17.80;;;;;;;;;;108007;276;39686;-44
2023/06/18 07:18:12;;;;;;;18.60;17.10;;;;;;;;;;107980;276;49624;-44
2023/06/18 07:20:45;;;;;;;18.70;17.20;;;;;;;;;;107853;277;174959;-44
2023/06/18 07:23:19;;;;;;;18.30;16.90;;;;;;;;;;107973;276;38755;-43
2023/06/18 07:25:57;;;;;;;18.40;16.90;;;;;;;;;;107952;268;39692;-41
2023/06/18 07:28:33;;;;;;;18.90;17.20;;;;;;;;;;107899;273;49735;-40
2023/06/18 07:31:06;;;;;;;19.20;17.60;;;;;;;;;;107951;276;43337;-41
2023/06/18 07:33:39;;;;;;;18.30;16.70;;;;;;;;;;107990;272;38994;-41
2023/06/18 07:36:15;;;;;;;17.90;16.50;;;;;;;;;;108005;268;40732;-40
2023/06/18 07:38:51;;;;;;;18.20;16.70;;;;;;;;;;107854;268;50639;-40
2023/06/18 07:41:25;;;;;;;17.50;16.10;;;;;;;;;;108014;276;42469;-41
2023/06/18 07:43:59;;;;;;;18.00;16.50;;;;;;;;;;107924;277;38745;-42
2023/06/18 07:46:33;;;;;;;16.80;15.30;;;;;;;;;;107997;272;39659;-43
2023/06/18 07:49:07;;;;;;;18.00;16.50;;;;;;;;;;108102;276;48552;-42
2023/06/18 07:51:42;;;;;;;17.30;15.90;;;;;;;;;;107899;270;42168;-42
2023/06/18 07:54:15;;;;;;;18.30;16.80;;;;;;;;;;108012;268;38795;-41
2023/06/18 07:56:49;;;;;;;20.40;18.70;;;;;;;;;;107999;277;39487;-42
2023/06/18 07:59:22;;;;;;;20.60;19.00;;;;;;;;;;107981;268;49747;-41
2023/06/18 08:01:56;;;;;;;20.80;19.10;;;;;;;;;;108002;272;42236;-42
2023/06/18 08:04:31;;;;;;;22.20;20.40;;;;;;;;;;107989;269;38543;-42
2023/06/18 08:07:05;;;;;;;21.30;19.60;;;;;;;;;;108013;268;39419;-43
2023/06/18 08:09:38;;;;;;;22.50;20.70;;;;;;;;;;108153;269;47670;-42
2023/06/18 08:12:21;;;;;;;22.80;21.00;;;;;;;;;;107993;272;42285;-42
2023/06/18 08:14:56;;;;;;;22.80;20.90;;;;;;;;;;107980;268;39909;-41
2023/06/18 08:17:29;;;;;;;21.70;20.00;;;;;;;;;;108000;272;40093;-43
2023/06/18 08:20:04;;;;;;;21.00;19.30;;;;;;;;;;107969;272;49565;-43
2023/06/18 08:22:38;;;;;;;20.40;18.60;;;;;;;;;;108001;268;43348;-41
2023/06/18 08:25:14;;;;;;;20.70;18.90;;;;;;;;;;107984;276;38782;-41
2023/06/18 08:27:47;;;;;;;19.80;18.00;;;;;;;;;;107933;272;40849;-43
2023/06/18 08:30:20;;;;;;;19.90;18.20;;;;;;;;;;107988;276;51494;-43
2023/06/18 08:32:56;;;;;;;19.50;17.80;;;;;;;;;;108022;276;42288;-43
2023/06/18 08:35:31;;;;;;;18.90;17.30;;;;;;;;;;107961;277;38516;-43
2023/06/18 08:38:05;;;;;;;17.60;16.10;;;;;;;;;;107987;276;39824;-41
2023/06/18 08:40:52;;;;;;;17.60;16.10;;;;;;;;;;107971;276;48706;-41
2023/06/18 08:43:33;;;;;;;16.90;15.50;;;;;;;;;;108001;276;41937;-41
2023/06/18 08:46:14;;;;;;;17.20;15.70;;;;;;;;;;107956;272;38796;-42
2023/06/18 08:49:00;;;;;;;15.40;14.00;;;;;;;;;;107941;272;40876;-44
2023/06/18 08:51:32;;;;;;;;;;;;;;;;;;108005;272;42793;-41
2023/06/18 08:54:13;;;;;;;15.30;14.00;;;;;;;;;;108014;272;42025;-41
2023/06/18 08:56:55;;;;;;;15.00;13.70;;;;;;;;;;107979;276;38778;-42
2023/06/18 08:59:29;;;;;;;14.60;13.20;;;;;;;;;;107988;272;39793;-43
2023/06/18 09:02:04;;;;;;;14.50;13.10;;;;;;;;;;107978;276;44135;-43
2023/06/18 09:04:39;;;;;;;14.00;12.70;;;;;;;;;;108027;272;42179;-41
2023/06/18 09:07:13;;;;;;;13.70;12.50;;;;;;;;;;107887;269;39803;-42
2023/06/18 09:09:47;;;;;;;14.30;13.00;;;;;;;;;;107955;272;39447;-46
2023/06/18 09:12:21;;;;;;;13.40;12.20;;;;;;;;;;108046;269;42924;-42
2023/06/18 09:14:55;;;;;;;13.60;12.40;;;;;;;;;;108015;277;43349;-44
2023/06/18 09:17:29;;;;;;;13.20;12.00;;;;;;;;;;107980;272;38744;-43
2023/06/18 09:20:03;;;;;;;13.60;12.30;;;;;;;;;;108000;277;39421;-43
2023/06/18 09:22:48;;;;;;;13.80;12.50;;;;;;;;;;108001;269;42882;-43
2023/06/18 09:25:26;;;;;;;13.20;11.90;;;;;;;;;;107925;270;41954;-44
2023/06/18 09:28:05;;;;;;;13.40;12.20;;;;;;;;;;107379;277;891126;-42
2023/06/18 09:30:40;;;;;;;12.80;11.60;;;;;;;;;;107976;276;39792;-44
2023/06/18 09:33:15;;;;;;;13.00;11.90;;;;;;;;;;107984;276;43114;-44
2023/06/18 09:36:03;;;;;;;13.20;12.00;;;;;;;;;;108005;272;43206;-43
2023/06/18 09:38:39;;;;;;;13.20;12.00;;;;;;;;;;108013;276;38832;-43
2023/06/18 09:41:19;;;;;;;12.60;11.50;;;;;;;;;;108046;276;39763;-43
2023/06/18 09:43:54;;;;;;;12.80;11.70;;;;;;;;;;107973;272;42841;-42
2023/06/18 09:46:29;;;;;;;12.60;11.50;;;;;;;;;;108023;276;43292;-42
2023/06/18 09:49:06;;;;;;;12.60;11.40;;;;;;;;;;107944;276;38765;-43
2023/06/18 09:51:42;;;;;;;12.30;11.20;;;;;;;;;;108018;276;40185;-42
2023/06/18 09:54:16;;;;;;;12.50;11.40;;;;;;;;;;108001;273;44030;-43
2023/06/18 09:57:02;;;;;;;12.70;11.50;;;;;;;;;;107982;277;43359;-45
2023/06/18 09:59:35;;;;;;;12.30;11.10;;;;;;;;;;108036;272;38758;-42
2023/06/18 10:02:13;;;;;;;12.10;11.00;;;;;;;;;;107965;277;45640;-44
2023/06/18 10:04:50;;;;;;;11.40;10.40;;;;;;;;;;107945;269;42835;-42
2023/06/18 10:07:26;;;;;;;11.70;10.70;;;;;;;;;;108022;276;43353;-42
2023/06/18 10:10:05;;;;;;;11.80;10.70;;;;;;;;;;107929;277;38911;-43
2023/06/18 10:12:40;;;;;;;11.80;10.80;;;;;;;;;;107941;272;45540;-42
2023/06/18 10:15:16;;;;;;;11.80;10.70;;;;;;;;;;108001;268;42850;-47
2023/06/18 10:17:58;;;;;;;11.60;10.50;;;;;;;;;;108011;276;43310;-42
2023/06/18 10:20:33;;;;;;;11.50;10.40;;;;;;;;;;107947;276;38826;-42
2023/06/18 10:23:09;;;;;;;11.30;10.30;;;;;;;;;;108005;277;40700;-42
2023/06/18 10:25:47;;;;;;;11.30;10.30;;;;;;;;;;107995;272;42618;-43
2023/06/18 10:28:21;;;;;;;11.30;10.20;;;;;;;;;;107995;272;42163;-43
2023/06/18 10:30:56;;;;;;;11.60;10.50;;;;;;;;;;107959;272;38747;-43
2023/06/18 10:33:36;;;;;;;11.20;10.10;;;;;;;;;;108001;277;39698;-44
2023/06/18 10:36:13;;;;;;;10.80;9.80;;;;;;;;;;107990;277;43931;-45
2023/06/18 10:38:48;;;;;;;10.60;9.70;;;;;;;;;;108001;269;42010;-42
2023/06/18 10:41:27;;;;;;;11.20;10.10;;;;;;;;;;107988;269;38773;-44
2023/06/18 10:44:06;;;;;;;11.10;10.10;;;;;;;;;;108012;268;39716;-43
2023/06/18 10:46:42;;;;;;;10.80;9.90;;;;;;;;;;107978;276;42820;-44
2023/06/18 10:49:23;;;;;;;11.00;10.00;;;;;;;;;;107859;268;175126;-44
2023/06/18 10:52:26;;;;;;;10.60;9.60;;;;;;;;;;107945;272;39870;-45
2023/06/18 10:55:12;;;;;;;10.80;9.80;;;;;;;;;;107964;268;39830;-43
2023/06/18 10:57:49;;;;;;;11.20;10.10;;;;;;;;;;108004;272;42843;-44
2023/06/18 11:00:29;;;;;;;11.10;10.00;;;;;;;;;;108012;276;42170;-43
2023/06/18 11:03:04;;;;;;;11.10;10.10;;;;;;;;;;107944;276;38751;-42
2023/06/18 11:05:57;;;;;;;10.90;9.90;;;;;;;;;;107900;277;40045;-42
2023/06/18 11:08:32;;;;;;;10.50;9.60;;;;;;;;;;107972;269;42937;-44
2023/06/18 11:11:13;;;;;;;10.30;9.40;;;;;;;;;;107885;269;174927;-42
2023/06/18 11:13:55;;;;;;;10.70;9.70;;;;;;;;;;108083;272;45723;-42
2023/06/18 11:16:36;;;;;;;10.50;9.40;;;;;;;;;;108034;276;40622;-43
2023/06/18 11:19:14;;;;;;;11.20;10.20;;;;;;;;;;107964;272;42821;-42
2023/06/18 11:21:50;;;;;;;10.60;9.60;;;;;;;;;;107972;276;41959;-42
2023/06/18 11:24:25;;;;;;;10.00;9.00;;;;;;;;;;108017;277;38790;-42
2023/06/18 11:26:59;;;;;;;10.00;9.10;;;;;;;;;;108028;277;39498;-42
2023/06/18 11:29:36;;;;;;;10.40;9.40;;;;;;;;;;108011;272;42879;-42
2023/06/18 11:32:17;;;;;;;10.20;9.30;;;;;;;;;;107949;276;42342;-43
2023/06/18 11:34:50;;;;;;;10.30;9.40;;;;;;;;;;108003;268;39914;-44
2023/06/18 11:37:27;;;;;;;10.10;9.20;;;;;;;;;;107964;276;39476;-44
2023/06/18 11:40:03;;;;;;;10.20;9.30;;;;;;;;;;107894;272;175454;-43
2023/06/18 11:42:37;;;;;;;10.10;9.10;;;;;;;;;;107991;276;42171;-45
2023/06/18 11:45:15;;;;;;;10.50;9.50;;;;;;;;;;107991;269;38935;-42
2023/06/18 11:47:51;;;;;;;10.10;9.20;;;;;;;;;;108007;268;39395;-44
2023/06/18 11:50:29;;;;;;;10.30;9.40;;;;;;;;;;107995;276;43926;-42
2023/06/18 11:53:07;;;;;;;10.10;9.20;;;;;;;;;;107339;272;891448;-44
2023/06/18 11:55:41;;;;;;;10.10;9.20;;;;;;;;;;107989;272;39892;-43
2023/06/18 11:58:16;;;;;;;10.70;9.60;;;;;;;;;;107980;277;39546;-43
2023/06/18 12:00:50;;;;;;;10.30;9.30;;;;;;;;;;108024;276;42632;-42
2023/06/18 12:03:33;;;;;;;9.90;9.00;;;;;;;;;;107975;276;42171;-42
2023/06/18 12:06:18;;;;;;;10.10;9.20;;;;;;;;;;107991;273;38720;-41
2023/06/18 12:08:54;;;;;;;10.00;9.00;;;;;;;;;;107870;268;175450;-45
2023/06/18 12:11:42;;;;;;;10.40;9.50;;;;;;;;;;107987;269;42953;-43
2023/06/18 12:14:24;;;;;;;10.30;9.40;;;;;;;;;;107969;272;42241;-43
2023/06/18 12:16:59;;;;;;;;;;;;;;;;;;108051;276;38607;-43
2023/06/18 12:19:35;;;;;;;10.60;9.60;;;;;;;;;;108012;272;40870;-43
2023/06/18 12:22:11;;;;;;;11.00;10.00;;;;;;;;;;107999;272;43895;-42
2023/06/18 12:24:46;;;;;;;11.00;9.90;;;;;;;;;;107856;270;42554;-42
2023/06/18 12:27:19;;;;;;;11.70;10.60;;;;;;;;;;108017;268;38570;-43
2023/06/18 12:29:53;;;;;;;10.80;9.70;;;;;;;;;;107986;276;39477;-43
2023/06/18 12:32:27;;;;;;;11.70;10.50;;;;;;;;;;107972;272;42943;-43
2023/06/18 12:35:11;;;;;;;11.20;10.00;;;;;;;;;;107926;277;41935;-42
2023/06/18 12:37:46;;;;;;;10.80;9.70;;;;;;;;;;108020;272;38782;-42
2023/06/18 12:40:25;;;;;;;10.50;9.50;;;;;;;;;;107986;272;40627;-42
2023/06/18 12:42:59;;;;;;;10.00;9.00;;;;;;;;;;108011;268;42876;-42
2023/06/18 12:45:33;;;;;;;10.60;9.60;;;;;;;;;;108001;272;42157;-42
2023/06/18 12:48:16;;;;;;;10.30;9.20;;;;;;;;;;107575;272;548638;-43
2023/06/18 12:50:52;;;;;;;10.40;9.30;;;;;;;;;;107848;277;40905;-44
2023/06/18 12:53:33;;;;;;;10.20;9.20;;;;;;;;;;107991;276;42836;-45
2023/06/18 12:56:22;;;;;;;10.00;9.00;;;;;;;;;;108009;268;49518;-45
2023/06/18 12:58:57;;;;;;;10.10;9.00;;;;;;;;;;107987;277;38510;-43
2023/06/18 13:01:30;;;;;;;10.20;9.20;;;;;;;;;;107990;272;39712;-42
2023/06/18 13:04:05;;;;;;;10.00;9.00;;;;;;;;;;107996;269;42827;-42
2023/06/18 13:06:41;;;;;;;9.70;8.80;;;;;;;;;;108011;277;42253;-43
2023/06/18 13:09:14;;;;;;;10.20;9.20;;;;;;;;;;107880;270;39857;-42
2023/06/18 13:11:50;;;;;;;10.10;9.00;;;;;;;;;;107999;272;39598;-44
2023/06/18 13:14:23;;;;;;;10.30;9.20;;;;;;;;;;107968;276;42947;-42
2023/06/18 13:17:03;;;;;;;9.40;8.40;;;;;;;;;;108007;276;42129;-42
2023/06/18 13:19:37;;;;;;;9.50;8.60;;;;;;;;;;108013;272;38523;-42
2023/06/18 13:22:31;;;;;;;9.60;8.70;;;;;;;;;;108002;276;40932;-43
2023/06/18 13:25:09;;;;;;;9.60;8.60;;;;;;;;;;107835;269;175504;-42
2023/06/18 13:27:44;;;;;;;9.80;8.80;;;;;;;;;;108018;276;43177;-43
2023/06/18 13:30:19;;;;;;;9.50;8.60;;;;;;;;;;108049;274;38744;-42
2023/06/18 13:32:53;;;;;;;9.80;8.80;;;;;;;;;;108038;277;40920;-47
2023/06/18 13:35:27;;;;;;;9.70;8.70;;;;;;;;;;107971;269;42855;-43
2023/06/18 13:38:03;;;;;;;9.80;8.80;;;;;;;;;;108000;269;41863;-46
2023/06/18 13:40:38;;;;;;;9.50;8.60;;;;;;;;;;107994;276;38886;-44
2023/06/18 13:43:12;;;;;;;9.20;8.40;;;;;;;;;;108005;269;39726;-42
2023/06/18 13:45:47;;;;;;;9.40;8.50;;;;;;;;;;107986;269;42645;-43
2023/06/18 13:48:25;;;;;;;9.70;8.40;;;;;;;;;;108013;272;43273;-46
2023/06/18 13:50:58;;;;;;;10.20;9.10;;;;;;;;;;108000;276;38724;-44
2023/06/18 13:53:32;;;;;;;9.70;8.70;;;;;;;;;;108017;269;39600;-42
2023/06/18 13:56:10;;;;;;;9.80;8.80;;;;;;;;;;107995;277;42835;-43
2023/06/18 13:58:46;;;;;;;9.70;8.70;;;;;;;;;;107928;272;43311;-43
2023/06/18 14:01:24;;;;;;;10.20;9.20;;;;;;;;;;107984;276;38777;-42
2023/06/18 14:03:57;;;;;;;9.70;8.50;;;;;;;;;;107951;269;41116;-42
2023/06/18 14:06:34;;;;;;;9.80;8.80;;;;;;;;;;107950;272;43265;-41
2023/06/18 14:09:09;;;;;;;10.30;9.30;;;;;;;;;;108002;277;42026;-42
2023/06/18 14:11:45;;;;;;;10.30;9.20;;;;;;;;;;108020;269;39794;-43
2023/06/18 14:14:21;;;;;;;10.00;9.00;;;;;;;;;;107997;276;40813;-43
2023/06/18 14:16:56;;;;;;;10.60;9.10;;;;;;;;;;107946;273;42915;-43
2023/06/18 14:19:30;;;;;;;10.00;9.00;;;;;;;;;;108010;269;42144;-43
2023/06/18 14:22:03;;;;;;;9.80;8.80;;;;;;;;;;108032;276;38851;-42
2023/06/18 14:24:37;;;;;;;9.90;8.90;;;;;;;;;;107876;277;39832;-43
2023/06/18 14:27:15;;;;;;;9.80;8.80;;;;;;;;;;107955;276;42644;-42
2023/06/18 14:29:52;;;;;;;9.80;8.90;;;;;;;;;;108002;276;41971;-44
2023/06/18 14:32:30;;;;;;;10.00;8.90;;;;;;;;;;108014;272;39796;-42
2023/06/18 14:35:08;;;;;;;10.50;9.10;;;;;;;;;;107996;268;39718;-42
2023/06/18 14:37:41;;;;;;;9.80;8.80;;;;;;;;;;107964;272;42826;-44
2023/06/18 14:40:18;;;;;;;9.50;8.50;;;;;;;;;;107913;272;175136;-44
2023/06/18 14:42:52;;;;;;;9.90;8.90;;;;;;;;;;107986;276;39104;-44
2023/06/18 14:45:28;;;;;;;9.60;8.60;;;;;;;;;;107985;272;39451;-43
2023/06/18 14:48:02;;;;;;;9.50;8.50;;;;;;;;;;107957;277;42875;-43
2023/06/18 14:50:35;;;;;;;9.00;8.10;;;;;;;;;;107963;277;41947;-43
2023/06/18 14:53:12;;;;;;;9.20;8.30;;;;;;;;;;107989;268;38592;-42
2023/06/18 14:55:46;;;;;;;9.10;8.10;;;;;;;;;;107988;276;39809;-42
2023/06/18 14:58:20;;;;;;;8.90;8.00;;;;;;;;;;108096;269;50961;-43
2023/06/18 15:00:53;;;;;;;9.20;8.30;;;;;;;;;;108026;276;42350;-43
2023/06/18 15:03:29;;;;;;;9.30;8.40;;;;;;;;;;108053;276;38984;-42
2023/06/18 15:06:03;;;;;;;9.40;8.40;;;;;;;;;;108025;268;39663;-42
2023/06/18 15:08:38;;;;;;;8.60;7.70;;;;;;;;;;107323;269;890267;-43
2023/06/18 15:11:11;;;;;;;9.20;8.30;;;;;;;;;;107851;276;174895;-43